sensor_id;sensor_type;location;lat;lon;timestamp;temperature;humidity
9219;DHT22;4644;48.858;9.184;2022-10-23T00:01:56;12.50;99.90
9219;DHT22;4644;48.858;9.184;2022-10-23T00:04:24;12.50;99.90
9219;DHT22;4644;48.858;9.184;2022-10-23T00:06:51;12.40;99.90
9219;DHT22;4644;48.858;9.184;2022-10-23T00:09:20;12.40;99.90
9219;DHT22;4644;48.858;9.184;2022-10-23T00:11:50;12.30;99.90
9219;DHT22;4644;48.858;9.184;2022-10-23T00:14:20;12.20;99.90
9219;DHT22;4644;48.858;9.184;2022-10-23T00:16:47;12.20;99.90
9219;DHT22;4644;48.858;9.184;2022-10-23T00:19:14;12.10;99.90
9219;DHT22;4644;48.858;9.184;2022-10-23T00:21:41;12.10;99.90
9219;DHT22;4644;48.858;9.184;2022-10-23T00:24:09;12.10;99.90
9219;DHT22;4644;48.858;9.184;2022-10-23T00:26:36;12.10;99.90
9219;DHT22;4644;48.858;9.184;2022-10-23T00:29:07;12.10;99.90
9219;DHT22;4644;48.858;9.184;2022-10-23T00:31:34;12.10;99.90
9219;DHT22;4644;48.858;9.184;2022-10-23T00:34:05;12.00;99.90
9219;DHT22;4644;48.858;9.184;2022-10-23T00:36:33;12.00;99.90
9219;DHT22;4644;48.858;9.184;2022-10-23T00:39:00;12.10;99.90
9219;DHT22;4644;48.858;9.184;2022-10-23T00:41:28;12.00;99.90
9219;DHT22;4644;48.858;9.184;2022-10-23T00:44:04;11.90;99.90
9219;DHT22;4644;48.858;9.184;2022-10-23T00:46:32;11.90;99.90
9219;DHT22;4644;48.858;9.184;2022-10-23T00:49:00;11.80;99.90
9219;DHT22;4644;48.858;9.184;2022-10-23T00:51:31;11.80;99.90
9219;DHT22;4644;48.858;9.184;2022-10-23T00:54:00;11.70;99.90
9219;DHT22;4644;48.858;9.184;2022-10-23T00:56:28;11.70;99.90
9219;DHT22;4644;48.858;9.184;2022-10-23T00:58:56;11.70;99.90
9219;DHT22;4644;48.858;9.184;2022-10-23T01:01:23;11.70;99.90
9219;DHT22;4644;48.858;9.184;2022-10-23T01:03:55;11.70;99.90
9219;DHT22;4644;48.858;9.184;2022-10-23T01:06:30;11.70;99.90
9219;DHT22;4644;48.858;9.184;2022-10-23T01:09:03;11.70;99.90
9219;DHT22;4644;48.858;9.184;2022-10-23T01:11:39;11.70;99.90
9219;DHT22;4644;48.858;9.184;2022-10-23T01:14:16;11.70;99.90
9219;DHT22;4644;48.858;9.184;2022-10-23T01:16:52;11.60;99.90
9219;DHT22;4644;48.858;9.184;2022-10-23T01:19:41;11.60;99.90
9219;DHT22;4644;48.858;9.184;2022-10-23T01:22:26;11.60;99.90
9219;DHT22;4644;48.858;9.184;2022-10-23T01:25:00;11.60;99.90
9219;DHT22;4644;48.858;9.184;2022-10-23T01:27:36;11.60;99.90
9219;DHT22;4644;48.858;9.184;2022-10-23T01:30:07;11.60;99.90
9219;DHT22;4644;48.858;9.184;2022-10-23T01:32:40;11.60;99.90
9219;DHT22;4644;48.858;9.184;2022-10-23T01:35:12;11.50;99.90
9219;DHT22;4644;48.858;9.184;2022-10-23T01:37:42;11.50;99.90
9219;DHT22;4644;48.858;9.184;2022-10-23T01:40:17;11.50;99.90
9219;DHT22;4644;48.858;9.184;2022-10-23T01:42:51;11.50;99.90
9219;DHT22;4644;48.858;9.184;2022-10-23T01:45:24;11.40;99.90
9219;DHT22;4644;48.858;9.184;2022-10-23T01:47:55;11.40;99.90
9219;DHT22;4644;48.858;9.184;2022-10-23T01:50:24;11.40;99.90
9219;DHT22;4644;48.858;9.184;2022-10-23T01:52:52;11.40;99.90
9219;DHT22;4644;48.858;9.184;2022-10-23T01:55:19;11.40;99.90
9219;DHT22;4644;48.858;9.184;2022-10-23T01:57:51;11.40;99.90
9219;DHT22;4644;48.858;9.184;2022-10-23T02:00:19;11.40;99.90
9219;DHT22;4644;48.858;9.184;2022-10-23T02:02:48;11.40;99.90
9219;DHT22;4644;48.858;9.184;2022-10-23T02:05:19;11.40;99.90
9219;DHT22;4644;48.858;9.184;2022-10-23T02:07:47;11.40;99.90
9219;DHT22;4644;48.858;9.184;2022-10-23T02:10:15;11.40;99.90
9219;DHT22;4644;48.858;9.184;2022-10-23T02:12:51;11.40;99.90
9219;DHT22;4644;48.858;9.184;2022-10-23T02:15:25;11.40;99.90
9219;DHT22;4644;48.858;9.184;2022-10-23T02:18:01;11.40;99.90
9219;DHT22;4644;48.858;9.184;2022-10-23T02:20:36;11.40;99.90
9219;DHT22;4644;48.858;9.184;2022-10-23T02:23:13;11.30;99.90
9219;DHT22;4644;48.858;9.184;2022-10-23T02:25:47;11.30;99.90
9219;DHT22;4644;48.858;9.184;2022-10-23T02:28:21;11.30;99.90
9219;DHT22;4644;48.858;9.184;2022-10-23T02:30:49;11.30;99.90
9219;DHT22;4644;48.858;9.184;2022-10-23T02:33:16;11.40;99.90
9219;DHT22;4644;48.858;9.184;2022-10-23T02:35:45;11.40;99.90
9219;DHT22;4644;48.858;9.184;2022-10-23T02:38:30;11.40;99.90
9219;DHT22;4644;48.858;9.184;2022-10-23T02:41:12;11.40;99.90
9219;DHT22;4644;48.858;9.184;2022-10-23T02:43:51;11.40;99.90
9219;DHT22;4644;48.858;9.184;2022-10-23T02:46:26;11.40;99.90
9219;DHT22;4644;48.858;9.184;2022-10-23T02:48:59;11.40;99.90
9219;DHT22;4644;48.858;9.184;2022-10-23T02:51:32;11.40;99.90
9219;DHT22;4644;48.858;9.184;2022-10-23T02:54:09;11.30;99.90
9219;DHT22;4644;48.858;9.184;2022-10-23T02:56:40;11.30;99.90
9219;DHT22;4644;48.858;9.184;2022-10-23T02:59:15;11.30;99.90
9219;DHT22;4644;48.858;9.184;2022-10-23T03:01:50;11.30;99.90
9219;DHT22;4644;48.858;9.184;2022-10-23T03:04:20;11.30;99.90
9219;DHT22;4644;48.858;9.184;2022-10-23T03:06:49;11.30;99.90
9219;DHT22;4644;48.858;9.184;2022-10-23T03:09:17;11.30;99.90
9219;DHT22;4644;48.858;9.184;2022-10-23T03:11:44;11.30;99.90
9219;DHT22;4644;48.858;9.184;2022-10-23T03:14:13;11.20;99.90
9219;DHT22;4644;48.858;9.184;2022-10-23T03:16:40;11.20;99.90
9219;DHT22;4644;48.858;9.184;2022-10-23T03:19:07;11.20;99.90
9219;DHT22;4644;48.858;9.184;2022-10-23T03:21:34;11.20;99.90
9219;DHT22;4644;48.858;9.184;2022-10-23T03:24:01;11.20;99.90
9219;DHT22;4644;48.858;9.184;2022-10-23T03:26:28;11.20;99.90
9219;DHT22;4644;48.858;9.184;2022-10-23T03:28:55;11.20;99.90
9219;DHT22;4644;48.858;9.184;2022-10-23T03:31:24;11.20;99.90
9219;DHT22;4644;48.858;9.184;2022-10-23T03:33:51;11.20;99.90
9219;DHT22;4644;48.858;9.184;2022-10-23T03:36:18;11.20;99.90
9219;DHT22;4644;48.858;9.184;2022-10-23T03:38:45;11.30;99.90
9219;DHT22;4644;48.858;9.184;2022-10-23T03:41:12;11.20;99.90
9219;DHT22;4644;48.858;9.184;2022-10-23T03:43:39;11.30;99.90
9219;DHT22;4644;48.858;9.184;2022-10-23T03:46:06;11.30;99.90
9219;DHT22;4644;48.858;9.184;2022-10-23T03:48:38;11.30;99.90
9219;DHT22;4644;48.858;9.184;2022-10-23T03:51:09;11.20;99.90
9219;DHT22;4644;48.858;9.184;2022-10-23T03:53:36;11.20;99.90
9219;DHT22;4644;48.858;9.184;2022-10-23T03:56:04;11.20;99.90
9219;DHT22;4644;48.858;9.184;2022-10-23T03:58:31;11.30;99.90
9219;DHT22;4644;48.858;9.184;2022-10-23T04:00:58;11.30;99.90
9219;DHT22;4644;48.858;9.184;2022-10-23T04:03:25;11.30;99.90
9219;DHT22;4644;48.858;9.184;2022-10-23T04:05:53;11.20;99.90
9219;DHT22;4644;48.858;9.184;2022-10-23T04:08:20;11.20;99.90
9219;DHT22;4644;48.858;9.184;2022-10-23T04:10:47;11.20;99.90
9219;DHT22;4644;48.858;9.184;2022-10-23T04:13:14;11.30;99.90
9219;DHT22;4644;48.858;9.184;2022-10-23T04:15:47;11.30;99.90
9219;DHT22;4644;48.858;9.184;2022-10-23T04:18:15;11.30;99.90
9219;DHT22;4644;48.858;9.184;2022-10-23T04:20:42;11.30;99.90
9219;DHT22;4644;48.858;9.184;2022-10-23T04:23:10;11.30;99.90
9219;DHT22;4644;48.858;9.184;2022-10-23T04:25:37;11.30;99.90
9219;DHT22;4644;48.858;9.184;2022-10-23T04:28:04;11.30;99.90
9219;DHT22;4644;48.858;9.184;2022-10-23T04:30:31;11.30;99.90
9219;DHT22;4644;48.858;9.184;2022-10-23T04:32:59;11.20;99.90
9219;DHT22;4644;48.858;9.184;2022-10-23T04:35:26;11.20;99.90
9219;DHT22;4644;48.858;9.184;2022-10-23T04:37:53;11.30;99.90
9219;DHT22;4644;48.858;9.184;2022-10-23T04:40:21;11.30;99.90
9219;DHT22;4644;48.858;9.184;2022-10-23T04:42:48;11.30;99.90
9219;DHT22;4644;48.858;9.184;2022-10-23T04:45:15;11.30;99.90
9219;DHT22;4644;48.858;9.184;2022-10-23T04:47:42;11.30;99.90
9219;DHT22;4644;48.858;9.184;2022-10-23T04:50:09;11.30;99.90
9219;DHT22;4644;48.858;9.184;2022-10-23T04:52:36;11.30;99.90
9219;DHT22;4644;48.858;9.184;2022-10-23T04:55:05;11.40;99.90
9219;DHT22;4644;48.858;9.184;2022-10-23T04:57:34;11.40;99.90
9219;DHT22;4644;48.858;9.184;2022-10-23T05:00:01;11.40;99.90
9219;DHT22;4644;48.858;9.184;2022-10-23T05:02:28;11.30;99.90
9219;DHT22;4644;48.858;9.184;2022-10-23T05:04:55;11.40;99.90
9219;DHT22;4644;48.858;9.184;2022-10-23T05:07:22;11.40;99.90
9219;DHT22;4644;48.858;9.184;2022-10-23T05:09:49;11.30;99.90
9219;DHT22;4644;48.858;9.184;2022-10-23T05:12:16;11.40;99.90
9219;DHT22;4644;48.858;9.184;2022-10-23T05:14:46;11.40;99.90
9219;DHT22;4644;48.858;9.184;2022-10-23T05:17:16;11.40;99.90
9219;DHT22;4644;48.858;9.184;2022-10-23T05:19:50;11.40;99.90
9219;DHT22;4644;48.858;9.184;2022-10-23T05:22:20;11.40;99.90
9219;DHT22;4644;48.858;9.184;2022-10-23T05:24:48;11.40;99.90
9219;DHT22;4644;48.858;9.184;2022-10-23T05:27:15;11.40;99.90
9219;DHT22;4644;48.858;9.184;2022-10-23T05:29:42;11.50;99.90
9219;DHT22;4644;48.858;9.184;2022-10-23T05:32:12;11.40;99.90
9219;DHT22;4644;48.858;9.184;2022-10-23T05:34:40;11.40;99.90
9219;DHT22;4644;48.858;9.184;2022-10-23T05:37:10;11.40;99.90
9219;DHT22;4644;48.858;9.184;2022-10-23T05:39:39;11.40;99.90
9219;DHT22;4644;48.858;9.184;2022-10-23T05:42:06;11.40;99.90
9219;DHT22;4644;48.858;9.184;2022-10-23T05:44:33;11.40;99.90
9219;DHT22;4644;48.858;9.184;2022-10-23T05:47:01;11.40;99.90
9219;DHT22;4644;48.858;9.184;2022-10-23T05:49:29;11.40;99.90
9219;DHT22;4644;48.858;9.184;2022-10-23T05:51:57;11.50;99.90
9219;DHT22;4644;48.858;9.184;2022-10-23T05:54:24;11.50;99.90
9219;DHT22;4644;48.858;9.184;2022-10-23T05:56:51;11.50;99.90
9219;DHT22;4644;48.858;9.184;2022-10-23T05:59:18;11.50;99.90
9219;DHT22;4644;48.858;9.184;2022-10-23T06:01:45;11.50;99.90
9219;DHT22;4644;48.858;9.184;2022-10-23T06:04:13;11.40;99.90
9219;DHT22;4644;48.858;9.184;2022-10-23T06:06:41;11.40;99.90
9219;DHT22;4644;48.858;9.184;2022-10-23T06:09:10;11.40;99.90
9219;DHT22;4644;48.858;9.184;2022-10-23T06:11:37;11.40;99.90
9219;DHT22;4644;48.858;9.184;2022-10-23T06:14:05;11.30;99.90
9219;DHT22;4644;48.858;9.184;2022-10-23T06:16:32;11.40;99.90
9219;DHT22;4644;48.858;9.184;2022-10-23T06:18:59;11.30;99.90
9219;DHT22;4644;48.858;9.184;2022-10-23T06:21:26;11.30;99.90
9219;DHT22;4644;48.858;9.184;2022-10-23T06:23:55;11.30;99.90
9219;DHT22;4644;48.858;9.184;2022-10-23T06:26:22;11.40;99.90
9219;DHT22;4644;48.858;9.184;2022-10-23T06:28:49;11.40;99.90
9219;DHT22;4644;48.858;9.184;2022-10-23T06:31:16;11.40;99.90
9219;DHT22;4644;48.858;9.184;2022-10-23T06:33:45;11.40;99.90
9219;DHT22;4644;48.858;9.184;2022-10-23T06:36:12;11.40;99.90
9219;DHT22;4644;48.858;9.184;2022-10-23T06:38:39;11.40;99.90
9219;DHT22;4644;48.858;9.184;2022-10-23T06:41:12;11.40;99.90
9219;DHT22;4644;48.858;9.184;2022-10-23T06:43:39;11.50;99.90
9219;DHT22;4644;48.858;9.184;2022-10-23T06:46:07;11.50;99.90
9219;DHT22;4644;48.858;9.184;2022-10-23T06:48:34;11.50;99.90
9219;DHT22;4644;48.858;9.184;2022-10-23T06:51:04;11.50;99.90
9219;DHT22;4644;48.858;9.184;2022-10-23T06:53:32;11.60;99.90
9219;DHT22;4644;48.858;9.184;2022-10-23T06:55:59;11.50;99.90
9219;DHT22;4644;48.858;9.184;2022-10-23T06:58:28;11.60;99.90
9219;DHT22;4644;48.858;9.184;2022-10-23T07:00:58;11.60;99.90
9219;DHT22;4644;48.858;9.184;2022-10-23T07:03:25;11.60;99.90
9219;DHT22;4644;48.858;9.184;2022-10-23T07:05:53;11.70;99.90
9219;DHT22;4644;48.858;9.184;2022-10-23T07:08:20;11.70;99.90
9219;DHT22;4644;48.858;9.184;2022-10-23T07:10:48;11.80;99.90
9219;DHT22;4644;48.858;9.184;2022-10-23T07:13:15;11.80;99.90
9219;DHT22;4644;48.858;9.184;2022-10-23T07:15:43;11.90;99.90
9219;DHT22;4644;48.858;9.184;2022-10-23T07:18:10;11.90;99.90
9219;DHT22;4644;48.858;9.184;2022-10-23T07:20:39;12.00;99.90
9219;DHT22;4644;48.858;9.184;2022-10-23T07:23:07;12.00;99.90
9219;DHT22;4644;48.858;9.184;2022-10-23T07:25:35;12.00;99.90
9219;DHT22;4644;48.858;9.184;2022-10-23T07:28:02;12.00;99.90
9219;DHT22;4644;48.858;9.184;2022-10-23T07:30:30;12.10;99.90
9219;DHT22;4644;48.858;9.184;2022-10-23T07:32:58;12.20;99.90
9219;DHT22;4644;48.858;9.184;2022-10-23T07:35:29;12.20;99.90
9219;DHT22;4644;48.858;9.184;2022-10-23T07:37:58;12.30;99.90
9219;DHT22;4644;48.858;9.184;2022-10-23T07:40:28;12.30;99.90
9219;DHT22;4644;48.858;9.184;2022-10-23T07:42:55;12.40;99.90
9219;DHT22;4644;48.858;9.184;2022-10-23T07:45:22;12.50;99.90
9219;DHT22;4644;48.858;9.184;2022-10-23T07:47:50;12.50;99.90
9219;DHT22;4644;48.858;9.184;2022-10-23T07:50:18;12.60;99.90
9219;DHT22;4644;48.858;9.184;2022-10-23T07:52:45;12.70;99.90
9219;DHT22;4644;48.858;9.184;2022-10-23T07:55:13;12.70;99.90
9219;DHT22;4644;48.858;9.184;2022-10-23T07:57:40;12.80;99.90
9219;DHT22;4644;48.858;9.184;2022-10-23T08:00:09;12.80;99.90
9219;DHT22;4644;48.858;9.184;2022-10-23T08:02:36;12.90;99.90
9219;DHT22;4644;48.858;9.184;2022-10-23T08:05:04;13.00;99.90
9219;DHT22;4644;48.858;9.184;2022-10-23T08:07:33;13.20;99.90
9219;DHT22;4644;48.858;9.184;2022-10-23T08:10:02;13.30;99.90
9219;DHT22;4644;48.858;9.184;2022-10-23T08:12:32;13.40;99.90
9219;DHT22;4644;48.858;9.184;2022-10-23T08:15:01;13.50;99.90
9219;DHT22;4644;48.858;9.184;2022-10-23T08:17:29;13.50;99.90
9219;DHT22;4644;48.858;9.184;2022-10-23T08:19:56;13.60;99.90
9219;DHT22;4644;48.858;9.184;2022-10-23T08:22:22;13.70;99.90
9219;DHT22;4644;48.858;9.184;2022-10-23T08:24:51;13.80;99.90
9219;DHT22;4644;48.858;9.184;2022-10-23T08:27:18;14.00;99.90
9219;DHT22;4644;48.858;9.184;2022-10-23T08:29:45;14.10;99.90
9219;DHT22;4644;48.858;9.184;2022-10-23T08:32:14;14.30;99.90
9219;DHT22;4644;48.858;9.184;2022-10-23T08:34:41;14.40;99.90
9219;DHT22;4644;48.858;9.184;2022-10-23T08:37:08;14.50;99.90
9219;DHT22;4644;48.858;9.184;2022-10-23T08:39:35;14.50;99.90
9219;DHT22;4644;48.858;9.184;2022-10-23T08:42:19;14.60;99.90
9219;DHT22;4644;48.858;9.184;2022-10-23T08:44:52;14.60;99.90
9219;DHT22;4644;48.858;9.184;2022-10-23T08:47:27;14.70;99.90
9219;DHT22;4644;48.858;9.184;2022-10-23T08:49:58;14.70;99.90
9219;DHT22;4644;48.858;9.184;2022-10-23T08:52:38;14.70;99.90
9219;DHT22;4644;48.858;9.184;2022-10-23T08:55:14;14.70;99.90
9219;DHT22;4644;48.858;9.184;2022-10-23T08:57:50;14.80;99.90
9219;DHT22;4644;48.858;9.184;2022-10-23T09:00:18;14.80;99.90
9219;DHT22;4644;48.858;9.184;2022-10-23T09:02:47;14.90;99.90
9219;DHT22;4644;48.858;9.184;2022-10-23T09:05:17;15.10;99.90
9219;DHT22;4644;48.858;9.184;2022-10-23T09:08:15;15.10;99.90
9219;DHT22;4644;48.858;9.184;2022-10-23T09:11:05;15.20;99.90
9219;DHT22;4644;48.858;9.184;2022-10-23T09:16:42;15.50;99.90
9219;DHT22;4644;48.858;9.184;2022-10-23T09:19:14;15.70;99.90
9219;DHT22;4644;48.858;9.184;2022-10-23T09:21:43;15.80;99.90
9219;DHT22;4644;48.858;9.184;2022-10-23T09:24:13;15.90;99.90
9219;DHT22;4644;48.858;9.184;2022-10-23T09:26:43;16.00;99.90
9219;DHT22;4644;48.858;9.184;2022-10-23T09:29:21;16.10;99.90
9219;DHT22;4644;48.858;9.184;2022-10-23T09:31:50;16.20;99.90
9219;DHT22;4644;48.858;9.184;2022-10-23T09:34:20;16.20;99.90
9219;DHT22;4644;48.858;9.184;2022-10-23T09:36:49;16.40;99.90
9219;DHT22;4644;48.858;9.184;2022-10-23T09:39:27;16.50;99.90
9219;DHT22;4644;48.858;9.184;2022-10-23T09:41:54;16.50;99.90
9219;DHT22;4644;48.858;9.184;2022-10-23T09:44:28;16.70;99.90
9219;DHT22;4644;48.858;9.184;2022-10-23T09:47:00;16.80;99.90
9219;DHT22;4644;48.858;9.184;2022-10-23T09:49:39;16.90;99.90
9219;DHT22;4644;48.858;9.184;2022-10-23T09:52:24;17.00;99.90
9219;DHT22;4644;48.858;9.184;2022-10-23T09:54:59;17.20;99.90
9219;DHT22;4644;48.858;9.184;2022-10-23T09:57:32;17.30;99.90
9219;DHT22;4644;48.858;9.184;2022-10-23T10:00:14;17.40;99.90
9219;DHT22;4644;48.858;9.184;2022-10-23T10:02:43;17.40;99.90
9219;DHT22;4644;48.858;9.184;2022-10-23T10:05:23;17.50;99.90
9219;DHT22;4644;48.858;9.184;2022-10-23T10:07:55;17.60;99.90
9219;DHT22;4644;48.858;9.184;2022-10-23T10:10:23;17.60;99.90
9219;DHT22;4644;48.858;9.184;2022-10-23T10:12:54;17.80;99.90
9219;DHT22;4644;48.858;9.184;2022-10-23T10:15:27;17.90;99.90
9219;DHT22;4644;48.858;9.184;2022-10-23T10:18:08;17.90;99.90
9219;DHT22;4644;48.858;9.184;2022-10-23T10:21:02;18.00;99.90
9219;DHT22;4644;48.858;9.184;2022-10-23T10:23:37;18.00;99.90
9219;DHT22;4644;48.858;9.184;2022-10-23T10:26:14;18.00;99.90
9219;DHT22;4644;48.858;9.184;2022-10-23T10:28:58;18.10;99.90
9219;DHT22;4644;48.858;9.184;2022-10-23T10:31:34;18.10;99.90
9219;DHT22;4644;48.858;9.184;2022-10-23T10:34:10;18.10;99.90
9219;DHT22;4644;48.858;9.184;2022-10-23T10:36:46;18.20;99.90
9219;DHT22;4644;48.858;9.184;2022-10-23T10:39:23;18.20;99.90
9219;DHT22;4644;48.858;9.184;2022-10-23T10:42:10;18.30;99.90
9219;DHT22;4644;48.858;9.184;2022-10-23T10:44:56;18.50;99.90
9219;DHT22;4644;48.858;9.184;2022-10-23T10:47:36;18.60;99.90
9219;DHT22;4644;48.858;9.184;2022-10-23T10:50:16;18.70;99.90
9219;DHT22;4644;48.858;9.184;2022-10-23T10:52:51;18.70;99.90
9219;DHT22;4644;48.858;9.184;2022-10-23T10:55:27;18.70;99.90
9219;DHT22;4644;48.858;9.184;2022-10-23T10:58:00;18.70;99.90
9219;DHT22;4644;48.858;9.184;2022-10-23T11:00:30;18.80;99.90
9219;DHT22;4644;48.858;9.184;2022-10-23T11:03:15;18.80;99.90
9219;DHT22;4644;48.858;9.184;2022-10-23T11:05:47;18.80;99.90
9219;DHT22;4644;48.858;9.184;2022-10-23T11:08:18;18.80;99.90
9219;DHT22;4644;48.858;9.184;2022-10-23T11:10:50;18.80;99.90
9219;DHT22;4644;48.858;9.184;2022-10-23T11:13:26;18.90;99.90
9219;DHT22;4644;48.858;9.184;2022-10-23T11:15:56;18.80;99.90
9219;DHT22;4644;48.858;9.184;2022-10-23T11:18:28;18.80;99.90
9219;DHT22;4644;48.858;9.184;2022-10-23T11:21:13;18.80;99.90
9219;DHT22;4644;48.858;9.184;2022-10-23T11:24:07;18.90;99.90
9219;DHT22;4644;48.858;9.184;2022-10-23T11:26:45;18.80;99.90
9219;DHT22;4644;48.858;9.184;2022-10-23T11:29:30;18.80;99.90
9219;DHT22;4644;48.858;9.184;2022-10-23T11:32:12;18.90;99.90
9219;DHT22;4644;48.858;9.184;2022-10-23T11:37:37;18.90;99.90
9219;DHT22;4644;48.858;9.184;2022-10-23T11:40:22;18.90;99.90
9219;DHT22;4644;48.858;9.184;2022-10-23T11:42:50;18.90;99.90
9219;DHT22;4644;48.858;9.184;2022-10-23T11:45:32;19.00;99.90
9219;DHT22;4644;48.858;9.184;2022-10-23T11:48:00;19.00;99.90
9219;DHT22;4644;48.858;9.184;2022-10-23T11:50:32;18.90;99.90
9219;DHT22;4644;48.858;9.184;2022-10-23T11:53:04;18.90;99.90
9219;DHT22;4644;48.858;9.184;2022-10-23T11:55:36;19.00;99.90
9219;DHT22;4644;48.858;9.184;2022-10-23T11:58:20;19.00;99.90
9219;DHT22;4644;48.858;9.184;2022-10-23T12:01:18;19.00;99.90
9219;DHT22;4644;48.858;9.184;2022-10-23T12:03:51;19.10;99.90
9219;DHT22;4644;48.858;9.184;2022-10-23T12:06:26;19.10;99.90
9219;DHT22;4644;48.858;9.184;2022-10-23T12:08:56;19.20;99.90
9219;DHT22;4644;48.858;9.184;2022-10-23T12:11:27;19.20;99.90
9219;DHT22;4644;48.858;9.184;2022-10-23T12:13:54;19.20;99.90
9219;DHT22;4644;48.858;9.184;2022-10-23T12:16:21;19.30;99.90
9219;DHT22;4644;48.858;9.184;2022-10-23T12:18:50;19.30;99.90
9219;DHT22;4644;48.858;9.184;2022-10-23T12:21:20;19.30;99.90
9219;DHT22;4644;48.858;9.184;2022-10-23T12:27:01;19.40;99.90
9219;DHT22;4644;48.858;9.184;2022-10-23T12:29:40;19.40;99.90
9219;DHT22;4644;48.858;9.184;2022-10-23T12:32:24;19.40;99.90
9219;DHT22;4644;48.858;9.184;2022-10-23T12:35:16;19.50;99.90
9219;DHT22;4644;48.858;9.184;2022-10-23T12:38:03;19.50;99.90
9219;DHT22;4644;48.858;9.184;2022-10-23T12:40:33;19.50;99.90
9219;DHT22;4644;48.858;9.184;2022-10-23T12:43:16;19.60;99.90
9219;DHT22;4644;48.858;9.184;2022-10-23T12:45:46;19.60;99.90
9219;DHT22;4644;48.858;9.184;2022-10-23T12:48:18;19.60;99.90
9219;DHT22;4644;48.858;9.184;2022-10-23T12:50:48;19.60;99.90
9219;DHT22;4644;48.858;9.184;2022-10-23T12:53:17;19.60;99.90
9219;DHT22;4644;48.858;9.184;2022-10-23T12:55:47;19.70;99.90
9219;DHT22;4644;48.858;9.184;2022-10-23T12:58:21;19.70;99.90
9219;DHT22;4644;48.858;9.184;2022-10-23T13:00:53;19.70;99.90
9219;DHT22;4644;48.858;9.184;2022-10-23T13:03:22;19.80;99.90
9219;DHT22;4644;48.858;9.184;2022-10-23T13:05:51;19.70;99.90
9219;DHT22;4644;48.858;9.184;2022-10-23T13:08:20;19.80;99.90
9219;DHT22;4644;48.858;9.184;2022-10-23T13:10:49;19.80;99.90
9219;DHT22;4644;48.858;9.184;2022-10-23T13:13:21;19.90;99.90
9219;DHT22;4644;48.858;9.184;2022-10-23T13:15:49;19.90;99.90
9219;DHT22;4644;48.858;9.184;2022-10-23T13:18:17;20.00;99.90
9219;DHT22;4644;48.858;9.184;2022-10-23T13:20:56;19.90;99.90
9219;DHT22;4644;48.858;9.184;2022-10-23T13:23:27;19.80;99.90
9219;DHT22;4644;48.858;9.184;2022-10-23T13:25:57;19.90;99.90
9219;DHT22;4644;48.858;9.184;2022-10-23T13:28:26;19.80;99.90
9219;DHT22;4644;48.858;9.184;2022-10-23T13:31:26;19.80;99.90
9219;DHT22;4644;48.858;9.184;2022-10-23T13:34:19;19.90;99.90
9219;DHT22;4644;48.858;9.184;2022-10-23T13:36:52;19.90;99.90
9219;DHT22;4644;48.858;9.184;2022-10-23T13:39:25;19.90;99.90
9219;DHT22;4644;48.858;9.184;2022-10-23T13:41:59;19.90;99.90
9219;DHT22;4644;48.858;9.184;2022-10-23T13:44:28;19.80;99.90
9219;DHT22;4644;48.858;9.184;2022-10-23T13:46:58;19.70;99.90
9219;DHT22;4644;48.858;9.184;2022-10-23T13:49:28;19.70;99.90
9219;DHT22;4644;48.858;9.184;2022-10-23T13:51:55;19.70;99.90
9219;DHT22;4644;48.858;9.184;2022-10-23T13:54:24;19.70;99.90
9219;DHT22;4644;48.858;9.184;2022-10-23T13:56:55;19.60;99.90
9219;DHT22;4644;48.858;9.184;2022-10-23T13:59:28;19.60;99.90
9219;DHT22;4644;48.858;9.184;2022-10-23T14:01:57;19.60;99.90
9219;DHT22;4644;48.858;9.184;2022-10-23T14:04:24;19.60;99.90
9219;DHT22;4644;48.858;9.184;2022-10-23T14:06:51;19.60;99.90
9219;DHT22;4644;48.858;9.184;2022-10-23T14:09:23;19.70;99.90
9219;DHT22;4644;48.858;9.184;2022-10-23T14:11:50;19.70;99.90
9219;DHT22;4644;48.858;9.184;2022-10-23T14:14:17;19.60;99.90
9219;DHT22;4644;48.858;9.184;2022-10-23T14:16:44;19.50;99.90
9219;DHT22;4644;48.858;9.184;2022-10-23T14:19:12;19.50;99.90
9219;DHT22;4644;48.858;9.184;2022-10-23T14:21:40;19.40;99.90
9219;DHT22;4644;48.858;9.184;2022-10-23T14:24:08;19.40;99.90
9219;DHT22;4644;48.858;9.184;2022-10-23T14:26:35;19.30;99.90
9219;DHT22;4644;48.858;9.184;2022-10-23T14:29:02;19.20;99.90
9219;DHT22;4644;48.858;9.184;2022-10-23T14:31:29;19.20;99.90
9219;DHT22;4644;48.858;9.184;2022-10-23T14:33:57;19.10;99.90
9219;DHT22;4644;48.858;9.184;2022-10-23T14:36:28;19.10;99.90
9219;DHT22;4644;48.858;9.184;2022-10-23T14:38:58;19.10;99.90
9219;DHT22;4644;48.858;9.184;2022-10-23T14:41:33;19.20;99.90
9219;DHT22;4644;48.858;9.184;2022-10-23T14:44:00;19.20;99.90
9219;DHT22;4644;48.858;9.184;2022-10-23T14:46:27;19.20;99.90
9219;DHT22;4644;48.858;9.184;2022-10-23T14:48:54;19.20;99.90
9219;DHT22;4644;48.858;9.184;2022-10-23T14:51:23;19.20;99.90
9219;DHT22;4644;48.858;9.184;2022-10-23T14:53:56;19.10;99.90
9219;DHT22;4644;48.858;9.184;2022-10-23T14:56:24;19.10;99.90
9219;DHT22;4644;48.858;9.184;2022-10-23T14:58:52;19.10;99.90
9219;DHT22;4644;48.858;9.184;2022-10-23T15:01:19;19.00;99.90
9219;DHT22;4644;48.858;9.184;2022-10-23T15:03:46;19.00;99.90
9219;DHT22;4644;48.858;9.184;2022-10-23T15:06:19;18.90;99.90
9219;DHT22;4644;48.858;9.184;2022-10-23T15:08:48;18.80;99.90
9219;DHT22;4644;48.858;9.184;2022-10-23T15:11:17;18.70;99.90
9219;DHT22;4644;48.858;9.184;2022-10-23T15:13:43;18.60;99.90
9219;DHT22;4644;48.858;9.184;2022-10-23T15:16:11;18.60;99.90
9219;DHT22;4644;48.858;9.184;2022-10-23T15:18:38;18.50;99.90
9219;DHT22;4644;48.858;9.184;2022-10-23T15:21:06;18.40;99.90
9219;DHT22;4644;48.858;9.184;2022-10-23T15:23:36;18.40;99.90
9219;DHT22;4644;48.858;9.184;2022-10-23T15:26:06;18.30;99.90
9219;DHT22;4644;48.858;9.184;2022-10-23T15:28:35;18.40;99.90
9219;DHT22;4644;48.858;9.184;2022-10-23T15:31:04;18.30;99.90
9219;DHT22;4644;48.858;9.184;2022-10-23T15:33:32;18.40;99.90
9219;DHT22;4644;48.858;9.184;2022-10-23T15:36:03;18.50;99.90
9219;DHT22;4644;48.858;9.184;2022-10-23T15:38:31;18.60;99.90
9219;DHT22;4644;48.858;9.184;2022-10-23T15:41:12;18.60;99.90
9219;DHT22;4644;48.858;9.184;2022-10-23T15:43:41;18.70;99.90
9219;DHT22;4644;48.858;9.184;2022-10-23T15:46:08;18.70;99.90
9219;DHT22;4644;48.858;9.184;2022-10-23T15:48:35;18.70;99.90
9219;DHT22;4644;48.858;9.184;2022-10-23T15:51:05;18.70;99.90
9219;DHT22;4644;48.858;9.184;2022-10-23T15:53:32;18.60;99.90
9219;DHT22;4644;48.858;9.184;2022-10-23T15:56:00;18.60;99.90
9219;DHT22;4644;48.858;9.184;2022-10-23T15:58:30;18.40;99.90
9219;DHT22;4644;48.858;9.184;2022-10-23T16:01:02;18.40;99.90
9219;DHT22;4644;48.858;9.184;2022-10-23T16:03:31;18.50;99.90
9219;DHT22;4644;48.858;9.184;2022-10-23T16:05:58;18.50;99.90
9219;DHT22;4644;48.858;9.184;2022-10-23T16:08:25;18.40;99.90
9219;DHT22;4644;48.858;9.184;2022-10-23T16:10:52;18.40;99.90
9219;DHT22;4644;48.858;9.184;2022-10-23T16:13:22;18.30;99.90
9219;DHT22;4644;48.858;9.184;2022-10-23T16:15:53;18.20;99.90
9219;DHT22;4644;48.858;9.184;2022-10-23T16:18:22;18.10;99.90
9219;DHT22;4644;48.858;9.184;2022-10-23T16:20:50;18.00;99.90
9219;DHT22;4644;48.858;9.184;2022-10-23T16:23:20;17.90;99.90
9219;DHT22;4644;48.858;9.184;2022-10-23T16:25:47;17.90;99.90
9219;DHT22;4644;48.858;9.184;2022-10-23T16:28:18;17.80;99.90
9219;DHT22;4644;48.858;9.184;2022-10-23T16:30:47;17.70;99.90
9219;DHT22;4644;48.858;9.184;2022-10-23T16:33:15;17.60;99.90
9219;DHT22;4644;48.858;9.184;2022-10-23T16:35:47;17.60;99.90